Time;durP1;ratioP1;P1;durP2;ratioP2;P2;SDS_P1;SDS_P2;PMS_P1;PMS_P2;Temp;Humidity;BMP_temperature;BMP_pressure;BME280_temperature;BME280_humidity;BME280_pressure;Samples;Min_cycle;Max_cycle;Signal;HPM_P1;HPM_P2
2021/07/08 00:02:05;;;;;;;0.20;0.20;;;;;;;;;;5012993;28;20025;-70
2021/07/08 00:04:30;;;;;;;0.20;0.20;;;;;;;;;;5005789;28;20030;-70
2021/07/08 00:06:55;;;;;;;0.20;0.20;;;;;;;;;;5016306;28;20468;-70
2021/07/08 00:09:21;;;;;;;0.30;0.30;;;;;;;;;;5005554;28;20022;-71
2021/07/08 00:11:46;;;;;;;0.30;0.30;;;;;;;;;;5000248;28;20045;-71
2021/07/08 00:14:11;;;;;;;0.30;0.30;;;;;;;;;;5013620;28;20034;-70
2021/07/08 00:16:37;;;;;;;0.35;0.35;;;;;;;;;;4996695;28;20188;-72
2021/07/08 00:19:04;;;;;;;0.38;0.38;;;;;;;;;;4996458;28;20087;-70
2021/07/08 00:21:30;;;;;;;0.32;0.32;;;;;;;;;;5005907;28;20026;-70
2021/07/08 00:23:55;;;;;;;0.30;0.30;;;;;;;;;;5006746;28;20030;-71
2021/07/08 00:26:20;;;;;;;0.30;0.30;;;;;;;;;;5006169;28;20041;-71
2021/07/08 00:28:46;;;;;;;0.30;0.30;;;;;;;;;;5005495;28;20065;-71
2021/07/08 00:31:11;;;;;;;0.25;0.25;;;;;;;;;;5010734;28;20050;-71
2021/07/08 00:33:37;;;;;;;0.30;0.30;;;;;;;;;;5009136;28;20029;-71
2021/07/08 00:36:03;;;;;;;0.25;0.25;;;;;;;;;;5002528;28;20054;-70
2021/07/08 00:38:28;;;;;;;0.35;0.35;;;;;;;;;;5006668;28;20058;-70
2021/07/08 00:40:56;;;;;;;0.20;0.20;;;;;;;;;;5009374;28;20392;-71
2021/07/08 00:43:22;;;;;;;0.30;0.30;;;;;;;;;;5016446;28;20042;-70
2021/07/08 00:45:47;;;;;;;0.20;0.20;;;;;;;;;;5008729;28;20435;-72
2021/07/08 00:48:15;;;;;;;0.28;0.28;;;;;;;;;;5010803;28;20026;-72
2021/07/08 00:50:42;;;;;;;0.20;0.20;;;;;;;;;;5003680;28;20049;-72
2021/07/08 00:53:13;;;;;;;0.32;0.32;;;;;;;;;;5003792;28;20042;-72
2021/07/08 00:55:40;;;;;;;0.40;0.30;;;;;;;;;;5021259;28;20033;-72
2021/07/08 00:58:07;;;;;;;0.30;0.30;;;;;;;;;;4992862;28;20628;-72
2021/07/08 01:00:33;;;;;;;0.20;0.20;;;;;;;;;;5011673;28;20034;-71
2021/07/08 01:02:59;;;;;;;0.30;0.30;;;;;;;;;;5018036;28;20076;-72
2021/07/08 01:05:30;;;;;;;0.20;0.20;;;;;;;;;;5011260;28;20129;-71
2021/07/08 01:07:55;;;;;;;0.30;0.30;;;;;;;;;;4988331;28;20129;-73
2021/07/08 01:10:20;;;;;;;0.30;0.30;;;;;;;;;;5013918;28;20508;-72
2021/07/08 01:12:46;;;;;;;0.30;0.30;;;;;;;;;;5008120;28;20368;-72
2021/07/08 01:15:12;;;;;;;0.30;0.30;;;;;;;;;;5012201;28;20618;-72
2021/07/08 01:17:38;;;;;;;0.30;0.30;;;;;;;;;;5003350;28;20040;-72
2021/07/08 01:20:04;;;;;;;0.22;0.22;;;;;;;;;;5018044;28;20026;-72
2021/07/08 01:22:30;;;;;;;0.30;0.30;;;;;;;;;;5009218;28;20477;-72
2021/07/08 01:24:57;;;;;;;0.28;0.28;;;;;;;;;;5009992;28;20045;-72
2021/07/08 01:27:23;;;;;;;0.20;0.20;;;;;;;;;;4993438;28;20034;-72
2021/07/08 01:29:48;;;;;;;0.20;0.20;;;;;;;;;;4995616;28;20415;-72
2021/07/08 01:32:14;;;;;;;0.30;0.30;;;;;;;;;;5007857;28;20058;-72
2021/07/08 01:34:39;;;;;;;0.30;0.30;;;;;;;;;;5001865;28;20026;-72
2021/07/08 01:37:04;;;;;;;0.30;0.30;;;;;;;;;;5013582;28;20045;-72
2021/07/08 01:39:30;;;;;;;0.30;0.30;;;;;;;;;;4996305;28;20038;-73
2021/07/08 01:41:55;;;;;;;0.30;0.30;;;;;;;;;;5000591;28;20022;-72
2021/07/08 01:44:20;;;;;;;0.20;0.20;;;;;;;;;;5005301;28;20030;-73
2021/07/08 01:46:48;;;;;;;0.28;0.28;;;;;;;;;;5011058;28;20022;-72
2021/07/08 01:49:14;;;;;;;0.20;0.20;;;;;;;;;;5002369;28;20026;-72
2021/07/08 01:51:39;;;;;;;0.30;0.30;;;;;;;;;;4995219;28;20550;-72
2021/07/08 01:54:08;;;;;;;0.30;0.30;;;;;;;;;;5006594;28;20049;-72
2021/07/08 01:56:34;;;;;;;0.20;0.20;;;;;;;;;;4990100;28;20061;-72
2021/07/08 01:58:59;;;;;;;0.30;0.30;;;;;;;;;;4989803;28;20104;-72
2021/07/08 02:01:27;;;;;;;0.30;0.30;;;;;;;;;;4998052;28;20508;-72
2021/07/08 02:03:52;;;;;;;0.30;0.30;;;;;;;;;;5010993;28;20022;-72
2021/07/08 02:09:39;;;;;;;0.38;0.38;;;;;;;;;;5002333;28;20037;-72
2021/07/08 02:12:05;;;;;;;0.22;0.22;;;;;;;;;;4990207;28;20034;-72
2021/07/08 02:14:33;;;;;;;0.22;0.22;;;;;;;;;;5010078;28;20018;-71
2021/07/08 02:16:59;;;;;;;0.22;0.22;;;;;;;;;;5004973;28;20110;-71
2021/07/08 02:19:24;;;;;;;0.30;0.30;;;;;;;;;;5000983;28;20030;-72
2021/07/08 02:21:49;;;;;;;0.25;0.25;;;;;;;;;;4999592;28;20100;-73
2021/07/08 02:24:15;;;;;;;0.20;0.20;;;;;;;;;;5007060;28;20037;-72
2021/07/08 02:26:43;;;;;;;0.22;0.22;;;;;;;;;;5008395;28;20017;-73
2021/07/08 02:29:09;;;;;;;0.20;0.20;;;;;;;;;;5007958;28;20455;-72
2021/07/08 02:31:35;;;;;;;0.20;0.20;;;;;;;;;;5000811;28;20029;-73
2021/07/08 02:34:00;;;;;;;0.25;0.25;;;;;;;;;;4998603;28;20387;-73
2021/07/08 02:36:25;;;;;;;0.30;0.30;;;;;;;;;;5002551;28;20502;-72
2021/07/08 02:38:51;;;;;;;0.20;0.20;;;;;;;;;;4998128;28;20522;-72
2021/07/08 02:41:16;;;;;;;0.30;0.30;;;;;;;;;;5006163;28;20029;-72
2021/07/08 02:43:41;;;;;;;0.20;0.20;;;;;;;;;;4991193;28;20121;-72
2021/07/08 02:46:07;;;;;;;0.30;0.30;;;;;;;;;;4996487;28;20022;-72
2021/07/08 02:48:34;;;;;;;0.25;0.25;;;;;;;;;;4997650;28;20532;-73
2021/07/08 02:51:02;;;;;;;0.20;0.20;;;;;;;;;;5017421;28;20091;-72
2021/07/08 02:53:29;;;;;;;0.30;0.30;;;;;;;;;;4989041;28;20042;-72
2021/07/08 02:55:55;;;;;;;0.30;0.30;;;;;;;;;;5001869;28;20091;-73
2021/07/08 02:58:23;;;;;;;0.30;0.30;;;;;;;;;;5005156;28;20073;-72
2021/07/08 03:00:48;;;;;;;0.47;0.47;;;;;;;;;;5001457;28;20463;-72
2021/07/08 03:03:15;;;;;;;0.30;0.30;;;;;;;;;;5001725;28;20111;-72
2021/07/08 03:05:40;;;;;;;0.40;0.40;;;;;;;;;;5007191;28;20467;-72
2021/07/08 03:08:08;;;;;;;0.35;0.35;;;;;;;;;;4997141;28;20035;-72
2021/07/08 03:10:33;;;;;;;0.40;0.40;;;;;;;;;;4997881;28;20046;-72
2021/07/08 03:12:59;;;;;;;0.52;0.43;;;;;;;;;;5006710;28;20033;-72
2021/07/08 03:15:25;;;;;;;0.30;0.30;;;;;;;;;;5005669;28;20618;-72
2021/07/08 03:17:51;;;;;;;0.20;0.20;;;;;;;;;;4997655;28;20030;-72
2021/07/08 03:20:24;;;;;;;0.40;0.40;;;;;;;;;;5006801;28;20502;-72
2021/07/08 03:22:50;;;;;;;0.50;0.50;;;;;;;;;;5003480;28;20107;-71
2021/07/08 03:25:16;;;;;;;0.30;0.30;;;;;;;;;;4997050;28;20137;-71
2021/07/08 03:27:42;;;;;;;0.65;0.40;;;;;;;;;;4999699;28;20087;-71
2021/07/08 03:30:12;;;;;;;0.43;0.43;;;;;;;;;;4994209;28;20046;-71
2021/07/08 03:32:38;;;;;;;0.30;0.30;;;;;;;;;;4999378;28;20133;-72
2021/07/08 03:35:04;;;;;;;0.32;0.32;;;;;;;;;;4995019;28;20045;-72
2021/07/08 03:37:29;;;;;;;0.38;0.38;;;;;;;;;;4987957;28;20049;-71
2021/07/08 03:39:57;;;;;;;0.35;0.35;;;;;;;;;;4998428;28;20030;-71
2021/07/08 03:42:22;;;;;;;0.28;0.28;;;;;;;;;;4995146;28;20034;-72
2021/07/08 03:44:48;;;;;;;0.30;0.30;;;;;;;;;;5003855;28;20019;-72
2021/07/08 03:47:13;;;;;;;0.30;0.30;;;;;;;;;;4998915;28;20022;-71
2021/07/08 03:49:38;;;;;;;0.30;0.30;;;;;;;;;;4997311;28;21590;-72
2021/07/08 03:52:04;;;;;;;0.20;0.20;;;;;;;;;;4988145;28;20033;-72
2021/07/08 03:54:29;;;;;;;0.30;0.30;;;;;;;;;;5002006;28;20029;-72
2021/07/08 03:56:55;;;;;;;0.40;0.40;;;;;;;;;;4999302;28;20030;-72
2021/07/08 03:59:20;;;;;;;0.32;0.32;;;;;;;;;;5000595;28;20403;-71
2021/07/08 04:01:45;;;;;;;0.30;0.30;;;;;;;;;;4997215;28;20034;-72
2021/07/08 04:04:10;;;;;;;0.30;0.30;;;;;;;;;;4999948;28;20108;-71
2021/07/08 04:06:36;;;;;;;0.35;0.35;;;;;;;;;;4987739;28;20033;-72
2021/07/08 04:09:04;;;;;;;0.45;0.40;;;;;;;;;;4998210;28;20021;-72
2021/07/08 04:11:31;;;;;;;0.40;0.40;;;;;;;;;;4997210;28;20038;-71
2021/07/08 04:14:02;;;;;;;0.38;0.38;;;;;;;;;;4998475;28;20034;-71
2021/07/08 04:16:30;;;;;;;0.30;0.30;;;;;;;;;;4995052;28;20452;-71
2021/07/08 04:18:55;;;;;;;0.35;0.35;;;;;;;;;;4994754;28;20053;-71
2021/07/08 04:21:20;;;;;;;0.30;0.30;;;;;;;;;;4994061;28;20464;-73
2021/07/08 04:23:46;;;;;;;0.30;0.30;;;;;;;;;;5003146;28;20022;-72
2021/07/08 04:26:11;;;;;;;0.30;0.30;;;;;;;;;;4997431;28;20027;-72
2021/07/08 04:28:37;;;;;;;0.30;0.30;;;;;;;;;;4995082;28;20030;-73
2021/07/08 04:31:03;;;;;;;0.20;0.20;;;;;;;;;;5001254;28;20046;-72
2021/07/08 04:33:28;;;;;;;0.30;0.30;;;;;;;;;;4998136;28;20124;-72
2021/07/08 04:35:53;;;;;;;0.30;0.30;;;;;;;;;;4994389;28;20062;-72
2021/07/08 04:38:19;;;;;;;0.25;0.25;;;;;;;;;;4995411;28;20034;-72
2021/07/08 04:40:45;;;;;;;0.30;0.30;;;;;;;;;;4998862;28;20442;-72
2021/07/08 04:43:11;;;;;;;0.20;0.20;;;;;;;;;;4984036;28;20056;-72
2021/07/08 04:45:36;;;;;;;0.20;0.20;;;;;;;;;;4975544;28;20034;-72
2021/07/08 04:48:03;;;;;;;0.20;0.20;;;;;;;;;;5000156;28;20029;-72
2021/07/08 04:50:28;;;;;;;0.30;0.30;;;;;;;;;;5007007;28;20049;-72
2021/07/08 04:52:54;;;;;;;0.30;0.30;;;;;;;;;;5005677;28;20030;-72
2021/07/08 04:55:21;;;;;;;0.38;0.38;;;;;;;;;;5016576;28;20065;-73
2021/07/08 04:57:46;;;;;;;;;;;;;;;;;;4998110;28;20089;-72
2021/07/08 05:00:12;;;;;;;0.30;0.30;;;;;;;;;;4995525;28;20348;-73
2021/07/08 05:02:38;;;;;;;0.30;0.30;;;;;;;;;;4999831;28;20086;-71
2021/07/08 05:05:07;;;;;;;0.20;0.20;;;;;;;;;;4997192;28;21221;-72
2021/07/08 05:07:33;;;;;;;0.30;0.30;;;;;;;;;;5001322;28;20484;-72
2021/07/08 05:09:58;;;;;;;0.22;0.22;;;;;;;;;;5006393;28;20151;-72
2021/07/08 05:12:24;;;;;;;0.20;0.20;;;;;;;;;;5001379;28;20464;-71
2021/07/08 05:14:49;;;;;;;0.20;0.20;;;;;;;;;;5001458;28;20116;-71
2021/07/08 05:17:15;;;;;;;0.20;0.20;;;;;;;;;;5008349;28;20402;-72
2021/07/08 05:19:40;;;;;;;0.20;0.20;;;;;;;;;;5008249;28;20030;-71
2021/07/08 05:22:06;;;;;;;0.20;0.20;;;;;;;;;;5008977;28;20058;-71
2021/07/08 05:24:34;;;;;;;0.20;0.20;;;;;;;;;;5003207;28;20040;-72
2021/07/08 05:26:59;;;;;;;0.22;0.22;;;;;;;;;;4999699;28;20469;-72
2021/07/08 05:29:25;;;;;;;0.20;0.20;;;;;;;;;;4996983;28;20081;-71
2021/07/08 05:31:51;;;;;;;0.20;0.20;;;;;;;;;;4999312;28;20104;-71
2021/07/08 05:34:16;;;;;;;0.22;0.22;;;;;;;;;;4984503;28;20116;-71
2021/07/08 05:36:42;;;;;;;0.20;0.20;;;;;;;;;;5002439;28;20089;-71
2021/07/08 05:39:07;;;;;;;0.30;0.30;;;;;;;;;;4995205;28;20041;-71
2021/07/08 05:41:33;;;;;;;0.20;0.20;;;;;;;;;;5005546;28;20037;-72
2021/07/08 05:44:01;;;;;;;0.20;0.20;;;;;;;;;;4983006;28;20030;-72
2021/07/08 05:46:26;;;;;;;0.20;0.20;;;;;;;;;;5005096;28;20029;-72
2021/07/08 05:48:53;;;;;;;0.22;0.22;;;;;;;;;;5000071;28;20053;-71
2021/07/08 05:51:18;;;;;;;0.20;0.20;;;;;;;;;;4998474;28;20088;-73
2021/07/08 05:53:43;;;;;;;0.20;0.20;;;;;;;;;;4983063;28;20026;-74
2021/07/08 05:56:09;;;;;;;0.30;0.30;;;;;;;;;;5005104;28;20113;-73
2021/07/08 05:58:34;;;;;;;0.30;0.30;;;;;;;;;;5006253;28;20044;-73
2021/07/08 06:00:59;;;;;;;0.20;0.20;;;;;;;;;;5004354;28;20092;-72
2021/07/08 06:03:25;;;;;;;0.30;0.30;;;;;;;;;;5004013;28;20088;-73
2021/07/08 06:05:53;;;;;;;0.20;0.20;;;;;;;;;;5001884;28;20030;-73
2021/07/08 06:08:18;;;;;;;0.20;0.20;;;;;;;;;;4991699;28;20119;-72
2021/07/08 06:10:45;;;;;;;0.20;0.20;;;;;;;;;;4997045;28;20057;-72
2021/07/08 06:13:11;;;;;;;0.20;0.20;;;;;;;;;;4997695;28;20103;-72
2021/07/08 06:15:37;;;;;;;0.20;0.20;;;;;;;;;;5006847;28;20049;-72
2021/07/08 06:18:02;;;;;;;0.20;0.20;;;;;;;;;;4996161;28;20344;-72
2021/07/08 06:20:28;;;;;;;0.20;0.20;;;;;;;;;;5007731;28;20038;-72
2021/07/08 06:22:53;;;;;;;0.20;0.20;;;;;;;;;;5008730;28;20044;-72
2021/07/08 06:25:19;;;;;;;0.20;0.20;;;;;;;;;;5002822;28;20034;-71
2021/07/08 06:31:06;;;;;;;0.20;0.20;;;;;;;;;;4999116;28;20045;-72
2021/07/08 06:33:34;;;;;;;0.20;0.20;;;;;;;;;;4997724;28;20035;-73
2021/07/08 06:36:00;;;;;;;0.20;0.20;;;;;;;;;;5001735;28;20026;-73
2021/07/08 06:38:25;;;;;;;0.20;0.20;;;;;;;;;;4991330;28;20026;-73
2021/07/08 06:40:50;;;;;;;0.20;0.20;;;;;;;;;;5005333;28;20029;-73
2021/07/08 06:43:16;;;;;;;0.20;0.20;;;;;;;;;;5002508;28;20031;-73
2021/07/08 06:45:42;;;;;;;0.20;0.20;;;;;;;;;;4976256;28;20076;-72
2021/07/08 06:48:13;;;;;;;0.30;0.30;;;;;;;;;;5003080;28;20542;-72
2021/07/08 06:50:39;;;;;;;0.20;0.20;;;;;;;;;;4993226;28;20471;-73
2021/07/08 06:53:05;;;;;;;0.20;0.20;;;;;;;;;;4997055;28;20053;-73
2021/07/08 06:55:32;;;;;;;0.20;0.20;;;;;;;;;;4973714;28;20066;-73
2021/07/08 06:57:57;;;;;;;0.20;0.20;;;;;;;;;;5004010;28;20048;-73
2021/07/08 07:00:27;;;;;;;0.20;0.20;;;;;;;;;;4998693;28;20623;-73
2021/07/08 07:02:56;;;;;;;0.20;0.20;;;;;;;;;;4988102;28;20432;-71
2021/07/08 07:05:22;;;;;;;0.30;0.30;;;;;;;;;;4989775;28;20114;-71
2021/07/08 07:07:47;;;;;;;0.13;0.13;;;;;;;;;;4988160;28;20101;-71
2021/07/08 07:10:13;;;;;;;0.20;0.20;;;;;;;;;;4989345;28;20030;-70
2021/07/08 07:12:41;;;;;;;0.10;0.10;;;;;;;;;;4991795;28;20050;-70
2021/07/08 07:15:06;;;;;;;0.20;0.20;;;;;;;;;;5005632;28;20038;-72
2021/07/08 07:17:33;;;;;;;0.20;0.20;;;;;;;;;;4996045;28;20129;-72
2021/07/08 07:19:58;;;;;;;0.20;0.20;;;;;;;;;;5008879;28;20025;-72
2021/07/08 07:22:24;;;;;;;0.20;0.20;;;;;;;;;;5010576;28;20052;-72
2021/07/08 07:24:52;;;;;;;0.30;0.30;;;;;;;;;;5009038;28;20029;-72
2021/07/08 07:27:17;;;;;;;0.20;0.20;;;;;;;;;;5010566;28;20025;-71
2021/07/08 07:29:43;;;;;;;0.20;0.20;;;;;;;;;;5006798;28;20034;-72
2021/07/08 07:32:08;;;;;;;0.20;0.20;;;;;;;;;;5006226;28;20065;-72
2021/07/08 07:34:33;;;;;;;0.10;0.10;;;;;;;;;;5006495;28;20030;-72
2021/07/08 07:36:59;;;;;;;0.20;0.20;;;;;;;;;;4989714;28;20089;-72
2021/07/08 07:39:26;;;;;;;0.20;0.20;;;;;;;;;;4990522;28;20034;-72
2021/07/08 07:41:52;;;;;;;0.20;0.20;;;;;;;;;;4990543;28;20855;-71
2021/07/08 07:44:17;;;;;;;0.10;0.10;;;;;;;;;;4997463;28;20121;-72
2021/07/08 07:46:43;;;;;;;0.20;0.20;;;;;;;;;;4989477;28;20034;-72
2021/07/08 07:49:10;;;;;;;0.20;0.20;;;;;;;;;;4988982;28;20117;-73
2021/07/08 07:51:36;;;;;;;0.10;0.10;;;;;;;;;;4972564;28;20060;-73
2021/07/08 07:54:02;;;;;;;0.20;0.20;;;;;;;;;;4976831;28;20058;-72
2021/07/08 07:56:28;;;;;;;0.22;0.22;;;;;;;;;;5014471;28;20061;-72
2021/07/08 07:58:53;;;;;;;0.20;0.20;;;;;;;;;;5010366;28;20061;-74
2021/07/08 08:01:19;;;;;;;0.20;0.20;;;;;;;;;;5019045;28;20091;-72
2021/07/08 08:03:44;;;;;;;0.10;0.10;;;;;;;;;;5009822;28;20032;-72
2021/07/08 08:08:53;;;;;;;0.20;0.20;;;;;;;;;;5015594;28;20088;-71
2021/07/08 08:11:24;;;;;;;0.13;0.13;;;;;;;;;;5011946;28;20038;-70
2021/07/08 08:13:50;;;;;;;0.22;0.22;;;;;;;;;;5007830;28;20035;-72
2021/07/08 08:16:15;;;;;;;0.30;0.30;;;;;;;;;;5009991;28;20026;-71
2021/07/08 08:18:41;;;;;;;0.10;0.10;;;;;;;;;;4996840;28;20097;-71
2021/07/08 08:21:06;;;;;;;0.20;0.20;;;;;;;;;;5017269;28;20030;-73
2021/07/08 08:23:31;;;;;;;0.10;0.10;;;;;;;;;;5012124;28;20780;-71
2021/07/08 08:26:00;;;;;;;0.20;0.20;;;;;;;;;;5003472;28;20026;-71
2021/07/08 08:28:26;;;;;;;0.20;0.20;;;;;;;;;;5010393;28;20040;-71
2021/07/08 08:30:52;;;;;;;0.20;0.20;;;;;;;;;;5018550;28;20046;-70
2021/07/08 08:33:17;;;;;;;0.20;0.20;;;;;;;;;;5010606;28;20121;-72
2021/07/08 08:35:43;;;;;;;0.20;0.20;;;;;;;;;;5012916;28;20575;-71
2021/07/08 08:38:08;;;;;;;0.20;0.20;;;;;;;;;;5013201;28;20041;-72
2021/07/08 08:40:33;;;;;;;0.20;0.20;;;;;;;;;;5018193;28;20029;-71
2021/07/08 08:42:59;;;;;;;0.20;0.20;;;;;;;;;;5020478;28;20121;-71
2021/07/08 08:45:24;;;;;;;0.30;0.30;;;;;;;;;;5013073;28;20038;-71
2021/07/08 08:47:56;;;;;;;0.20;0.20;;;;;;;;;;5009733;28;20026;-71
2021/07/08 08:50:22;;;;;;;0.20;0.20;;;;;;;;;;5018512;28;20096;-71
2021/07/08 08:52:48;;;;;;;0.10;0.10;;;;;;;;;;5009711;28;20030;-71
2021/07/08 08:55:13;;;;;;;0.20;0.20;;;;;;;;;;5018074;28;20030;-71
2021/07/08 08:57:39;;;;;;;0.15;0.15;;;;;;;;;;5012056;28;20040;-71
2021/07/08 09:00:25;;;;;;;0.30;0.30;;;;;;;;;;5008010;28;20464;-71
2021/07/08 09:03:00;;;;;;;0.10;0.10;;;;;;;;;;5018428;28;20104;-71
2021/07/08 09:05:25;;;;;;;0.10;0.10;;;;;;;;;;5019083;28;20030;-71
2021/07/08 09:07:51;;;;;;;0.20;0.20;;;;;;;;;;5009011;28;20024;-71
2021/07/08 09:10:16;;;;;;;0.20;0.20;;;;;;;;;;5011369;28;20049;-71
2021/07/08 09:12:43;;;;;;;0.20;0.20;;;;;;;;;;5011146;28;20391;-71
2021/07/08 09:15:18;;;;;;;0.15;0.15;;;;;;;;;;5016148;28;20030;-71
2021/07/08 09:17:44;;;;;;;0.20;0.20;;;;;;;;;;5009915;28;20042;-71
2021/07/08 09:20:12;;;;;;;0.17;0.17;;;;;;;;;;5013633;28;20086;-71
2021/07/08 09:22:38;;;;;;;0.20;0.20;;;;;;;;;;5003416;28;20400;-72
2021/07/08 09:25:18;;;;;;;0.20;0.20;;;;;;;;;;5021028;28;20015;-72
2021/07/08 09:27:43;;;;;;;0.10;0.10;;;;;;;;;;5014052;28;20030;-71
2021/07/08 09:30:09;;;;;;;0.10;0.10;;;;;;;;;;5014066;28;20049;-72
2021/07/08 09:32:34;;;;;;;0.10;0.10;;;;;;;;;;5028064;28;20046;-71
2021/07/08 09:35:00;;;;;;;0.10;0.10;;;;;;;;;;5003763;28;20038;-71
2021/07/08 09:37:27;;;;;;;0.10;0.10;;;;;;;;;;5003375;28;20095;-71
2021/07/08 09:39:59;;;;;;;0.10;0.10;;;;;;;;;;5003915;28;20091;-71
2021/07/08 09:42:31;;;;;;;0.10;0.10;;;;;;;;;;5002435;28;20348;-72
2021/07/08 09:45:06;;;;;;;0.10;0.10;;;;;;;;;;5011038;28;20030;-72
2021/07/08 09:47:32;;;;;;;0.15;0.15;;;;;;;;;;5014969;28;20030;-73
2021/07/08 09:49:57;;;;;;;0.10;0.10;;;;;;;;;;5012927;28;20383;-72
2021/07/08 09:52:23;;;;;;;0.17;0.17;;;;;;;;;;5003643;28;20045;-71
2021/07/08 09:57:40;;;;;;;0.13;0.13;;;;;;;;;;5015241;28;20476;-70
2021/07/08 10:00:14;;;;;;;0.10;0.10;;;;;;;;;;5006313;28;20038;-71
2021/07/08 10:02:40;;;;;;;0.10;0.10;;;;;;;;;;5007241;28;20023;-71
2021/07/08 10:05:05;;;;;;;0.10;0.10;;;;;;;;;;5013286;28;20101;-71
2021/07/08 10:07:31;;;;;;;0.13;0.13;;;;;;;;;;5007849;28;20034;-71
2021/07/08 10:09:59;;;;;;;0.00;0.00;;;;;;;;;;5012624;28;20049;-71
2021/07/08 10:12:26;;;;;;;0.10;0.10;;;;;;;;;;5018792;28;20033;-71
2021/07/08 10:14:52;;;;;;;0.10;0.10;;;;;;;;;;5012691;28;20026;-71
2021/07/08 10:17:19;;;;;;;0.10;0.10;;;;;;;;;;5015350;28;20120;-71
2021/07/08 10:19:45;;;;;;;0.10;0.10;;;;;;;;;;5001252;28;20065;-71
2021/07/08 10:22:11;;;;;;;0.10;0.10;;;;;;;;;;5016725;28;20029;-71
2021/07/08 10:24:41;;;;;;;0.10;0.10;;;;;;;;;;5016022;28;20037;-71
2021/07/08 10:27:07;;;;;;;0.10;0.10;;;;;;;;;;5014137;28;20364;-71
2021/07/08 10:29:33;;;;;;;0.10;0.10;;;;;;;;;;5016314;28;20069;-70
2021/07/08 10:31:58;;;;;;;0.10;0.10;;;;;;;;;;5006956;28;20037;-71
2021/07/08 10:34:24;;;;;;;0.10;0.10;;;;;;;;;;5015017;28;20252;-71
2021/07/08 10:36:53;;;;;;;0.10;0.10;;;;;;;;;;5005635;28;20022;-71
2021/07/08 10:39:20;;;;;;;0.00;0.00;;;;;;;;;;5006741;28;20407;-71
2021/07/08 10:41:45;;;;;;;;;;;;;;;;;;5009018;28;20034;-70
2021/07/08 10:44:29;;;;;;;0.10;0.10;;;;;;;;;;5019493;28;19913;-71
2021/07/08 10:46:55;;;;;;;0.10;0.10;;;;;;;;;;4996652;28;20069;-71
2021/07/08 10:49:20;;;;;;;0.20;0.20;;;;;;;;;;5008109;28;20033;-71
2021/07/08 10:51:45;;;;;;;0.10;0.10;;;;;;;;;;5020826;28;20050;-71
2021/07/08 10:54:27;;;;;;;0.10;0.10;;;;;;;;;;5004419;28;20038;-71
2021/07/08 10:56:53;;;;;;;0.10;0.10;;;;;;;;;;5004791;28;20051;-71
2021/07/08 10:59:18;;;;;;;0.10;0.10;;;;;;;;;;5012503;28;20034;-71
2021/07/08 11:01:50;;;;;;;0.10;0.10;;;;;;;;;;5017223;28;20720;-71
2021/07/08 11:04:36;;;;;;;0.10;0.10;;;;;;;;;;5016400;28;20022;-71
2021/07/08 11:07:19;;;;;;;0.03;0.03;;;;;;;;;;5002669;28;20090;-71
2021/07/08 11:09:56;;;;;;;0.15;0.10;;;;;;;;;;5005866;28;20030;-71
2021/07/08 11:12:32;;;;;;;0.10;0.10;;;;;;;;;;5011141;28;20042;-72
2021/07/08 11:14:58;;;;;;;0.10;0.10;;;;;;;;;;5012054;28;20049;-71
2021/07/08 11:17:24;;;;;;;0.00;0.00;;;;;;;;;;5004220;28;20030;-71
2021/07/08 11:19:50;;;;;;;0.10;0.10;;;;;;;;;;5003341;28;20029;-71
2021/07/08 11:22:22;;;;;;;0.10;0.10;;;;;;;;;;5001093;28;20026;-72
2021/07/08 11:24:51;;;;;;;0.00;0.00;;;;;;;;;;5007034;28;20053;-71
2021/07/08 11:27:17;;;;;;;0.10;0.10;;;;;;;;;;5006161;28;20029;-72
2021/07/08 11:29:50;;;;;;;0.10;0.10;;;;;;;;;;5009427;28;20044;-71
2021/07/08 11:32:20;;;;;;;0.10;0.10;;;;;;;;;;5005379;28;20090;-71
2021/07/08 11:34:59;;;;;;;0.00;0.00;;;;;;;;;;5009728;28;20042;-72
2021/07/08 11:38:00;;;;;;;0.20;0.10;;;;;;;;;;5002478;28;20084;-72
2021/07/08 11:40:20;;;;;;;0.10;0.10;;;;;;;;;;5000835;28;20177;-72
2021/07/08 11:42:47;;;;;;;0.10;0.10;;;;;;;;;;5003294;28;20037;-72
2021/07/08 11:45:15;;;;;;;0.17;0.10;;;;;;;;;;5001337;28;20030;-72
2021/07/08 11:47:41;;;;;;;0.10;0.10;;;;;;;;;;4994837;28;20585;-71
2021/07/08 11:50:20;;;;;;;0.10;0.10;;;;;;;;;;4996981;28;20027;-71
2021/07/08 11:52:46;;;;;;;0.00;0.00;;;;;;;;;;4981244;28;20042;-71
2021/07/08 11:55:12;;;;;;;0.10;0.10;;;;;;;;;;5011517;28;20036;-71
2021/07/08 11:57:50;;;;;;;0.10;0.10;;;;;;;;;;5019621;28;20038;-71
2021/07/08 12:00:29;;;;;;;0.00;0.00;;;;;;;;;;5009374;28;20034;-72
2021/07/08 12:02:54;;;;;;;0.10;0.10;;;;;;;;;;5002425;28;20030;-71
2021/07/08 12:05:21;;;;;;;0.10;0.10;;;;;;;;;;5005978;28;20383;-71
2021/07/08 12:07:52;;;;;;;;;;;;;;;;;;5000198;28;20030;-71
2021/07/08 12:10:23;;;;;;;0.03;0.03;;;;;;;;;;5023389;28;19936;-72
2021/07/08 12:12:53;;;;;;;0.08;0.08;;;;;;;;;;5024599;28;20041;-72
2021/07/08 12:15:22;;;;;;;0.00;0.00;;;;;;;;;;5018256;28;20030;-72
2021/07/08 12:17:55;;;;;;;0.10;0.10;;;;;;;;;;5009413;28;20528;-73
2021/07/08 12:20:21;;;;;;;0.10;0.10;;;;;;;;;;5016273;28;20042;-71
2021/07/08 12:22:53;;;;;;;0.00;0.00;;;;;;;;;;5017266;28;20126;-71
2021/07/08 12:25:19;;;;;;;0.05;0.05;;;;;;;;;;5019592;28;20030;-71
2021/07/08 12:27:44;;;;;;;0.00;0.00;;;;;;;;;;5022814;28;20052;-71
2021/07/08 12:30:20;;;;;;;0.00;0.00;;;;;;;;;;5017026;28;20068;-73
2021/07/08 12:32:46;;;;;;;0.10;0.10;;;;;;;;;;5020155;28;20029;-72
2021/07/08 12:35:11;;;;;;;0.10;0.10;;;;;;;;;;5019738;28;20034;-72
2021/07/08 12:37:39;;;;;;;0.10;0.10;;;;;;;;;;5022755;28;20038;-71
2021/07/08 12:40:08;;;;;;;0.32;0.10;;;;;;;;;;5012008;28;20037;-71
2021/07/08 12:42:35;;;;;;;0.10;0.10;;;;;;;;;;5028715;28;20040;-71
2021/07/08 12:45:11;;;;;;;0.10;0.10;;;;;;;;;;5040031;28;20065;-71
2021/07/08 12:47:37;;;;;;;0.10;0.10;;;;;;;;;;5007785;28;20069;-72
2021/07/08 12:50:03;;;;;;;0.20;0.10;;;;;;;;;;5020598;28;20025;-71
2021/07/08 12:52:29;;;;;;;0.10;0.10;;;;;;;;;;5018586;28;20041;-72
2021/07/08 12:54:54;;;;;;;0.20;0.20;;;;;;;;;;5025772;28;20049;-72
2021/07/08 12:57:23;;;;;;;0.10;0.10;;;;;;;;;;5026119;28;20061;-72
2021/07/08 12:59:53;;;;;;;0.10;0.10;;;;;;;;;;5011472;28;20034;-72
2021/07/08 13:02:26;;;;;;;0.05;0.05;;;;;;;;;;5021751;28;20052;-72
2021/07/08 13:05:18;;;;;;;0.10;0.10;;;;;;;;;;5002070;28;20598;-71
2021/07/08 13:07:47;;;;;;;0.10;0.10;;;;;;;;;;5006500;28;20489;-71
2021/07/08 13:10:15;;;;;;;0.10;0.10;;;;;;;;;;5007801;28;20034;-71
2021/07/08 13:12:41;;;;;;;0.10;0.10;;;;;;;;;;5016328;28;20033;-72
2021/07/08 13:15:21;;;;;;;0.10;0.10;;;;;;;;;;5011334;28;20029;-72
2021/07/08 13:17:46;;;;;;;0.15;0.15;;;;;;;;;;5015414;28;20032;-71
2021/07/08 13:20:15;;;;;;;0.10;0.10;;;;;;;;;;5028565;28;20040;-71
2021/07/08 13:22:42;;;;;;;0.10;0.10;;;;;;;;;;5010542;28;20069;-71
2021/07/08 13:25:07;;;;;;;;;;;;;;;;;;5009845;28;20026;-71
2021/07/08 13:27:33;;;;;;;0.10;0.10;;;;;;;;;;5019057;28;19914;-71
2021/07/08 13:30:18;;;;;;;0.10;0.10;;;;;;;;;;5003488;28;20093;-71
2021/07/08 13:32:43;;;;;;;0.05;0.05;;;;;;;;;;5010768;28;20038;-71
2021/07/08 13:35:09;;;;;;;0.00;0.00;;;;;;;;;;4993496;28;20022;-71
2021/07/08 13:37:39;;;;;;;0.00;0.00;;;;;;;;;;5016604;28;20045;-75
2021/07/08 13:40:08;;;;;;;0.10;0.10;;;;;;;;;;5035403;28;20105;-72
2021/07/08 13:42:33;;;;;;;0.10;0.10;;;;;;;;;;5017203;28;20462;-71
2021/07/08 13:44:59;;;;;;;0.63;0.20;;;;;;;;;;5015764;28;20073;-71
2021/07/08 13:47:25;;;;;;;0.10;0.10;;;;;;;;;;5011962;28;20312;-71
2021/07/08 13:49:51;;;;;;;0.13;0.13;;;;;;;;;;5010887;28;20645;-71
2021/07/08 13:52:17;;;;;;;;;;;;;;;;;;5013611;28;20042;-72
2021/07/08 13:54:46;;;;;;;0.20;0.20;;;;;;;;;;5002768;28;19962;-72
2021/07/08 13:57:17;;;;;;;0.20;0.20;;;;;;;;;;5011908;28;20307;-71
2021/07/08 13:59:44;;;;;;;0.20;0.20;;;;;;;;;;5005700;28;20110;-72
2021/07/08 14:02:12;;;;;;;0.20;0.20;;;;;;;;;;5007548;28;20136;-71
2021/07/08 14:04:40;;;;;;;0.20;0.20;;;;;;;;;;5003758;28;20515;-71
2021/07/08 14:07:06;;;;;;;0.10;0.10;;;;;;;;;;5015282;28;20718;-71
2021/07/08 14:09:31;;;;;;;0.20;0.20;;;;;;;;;;5017806;28;20044;-72
2021/07/08 14:11:57;;;;;;;0.20;0.13;;;;;;;;;;5018469;28;20582;-72
2021/07/08 14:14:24;;;;;;;0.10;0.10;;;;;;;;;;5010153;28;20038;-72
2021/07/08 14:16:49;;;;;;;0.10;0.10;;;;;;;;;;5009725;28;20034;-72
2021/07/08 14:19:15;;;;;;;0.10;0.10;;;;;;;;;;5011238;28;20033;-72
2021/07/08 14:21:40;;;;;;;0.10;0.10;;;;;;;;;;5015314;28;20112;-72
2021/07/08 14:24:06;;;;;;;0.07;0.07;;;;;;;;;;5008236;28;20112;-72
2021/07/08 14:26:31;;;;;;;0.10;0.10;;;;;;;;;;5017699;28;20089;-71
2021/07/08 14:28:57;;;;;;;0.20;0.20;;;;;;;;;;5011218;28;20036;-72
2021/07/08 14:31:22;;;;;;;0.20;0.20;;;;;;;;;;5004642;28;20092;-72
2021/07/08 14:33:47;;;;;;;0.10;0.10;;;;;;;;;;4999428;28;20046;-70
2021/07/08 14:36:13;;;;;;;1.80;0.40;;;;;;;;;;5007569;28;20041;-70
2021/07/08 14:38:38;;;;;;;0.10;0.10;;;;;;;;;;5005198;28;20037;-70
2021/07/08 14:41:07;;;;;;;0.65;0.20;;;;;;;;;;5019401;28;20057;-72
2021/07/08 14:43:44;;;;;;;0.00;0.00;;;;;;;;;;5011006;28;20050;-72
2021/07/08 14:46:11;;;;;;;2.05;0.75;;;;;;;;;;5018735;28;20034;-72
2021/07/08 14:48:39;;;;;;;0.10;0.10;;;;;;;;;;5013166;28;20020;-72
2021/07/08 14:51:07;;;;;;;0.10;0.10;;;;;;;;;;5005707;28;20064;-71
2021/07/08 14:53:35;;;;;;;0.00;0.00;;;;;;;;;;5011731;28;20040;-72
2021/07/08 14:56:01;;;;;;;0.05;0.00;;;;;;;;;;5028779;28;20535;-72
2021/07/08 14:58:26;;;;;;;0.67;0.40;;;;;;;;;;5019581;28;20418;-71